Bookmark and Share
Track history (hours):
 

Asolare

Last reported at 2014-Apr-23 06:33 UTC. Time now 2014-Apr-23 07:14 UTC.
Position N 41°29' W 071°19'.

Length 47 m; draft 4.9 m.

Type: Sailing vessel. MMSI: 310413000.

NotesDate/timePositionNaut miles runAvg speedWind from/ knotsBaromVisibWave heightAir tempDewpointWater temp
2014-Apr-23 06:33N 41°29' W 071°19'5 4.9
2014-Apr-23 05:33N 41°25' W 071°23'1212.3
2014-Apr-23 04:33N 41°13' W 071°20'1212.4
2014-Apr-23 03:33N 41°02' W 071°14'1312.5
2014-Apr-23 02:33N 40°50' W 071°08'1212.3
2014-Apr-23 01:33N 40°39' W 071°02'1212.1
2014-Apr-23 00:33N 40°27' W 070°56'1212.1
2014-Apr-22 23:33N 40°16' W 070°49'1211.8
2014-Apr-22 22:33N 40°06' W 070°42'1212.1
2014-Apr-22 21:33N 39°54' W 070°36'1211.8
2014-Apr-22 20:33N 39°44' W 070°30'1410.9
2014-Apr-22 19:13N 39°30' W 070°23'6 9.6
2014-Apr-22 18:33N 39°24' W 070°20'1111.0
2014-Apr-22 17:34N 39°14' W 070°16'1111.1
2014-Apr-22 16:33N 39°03' W 070°13'1211.4
2014-Apr-22 15:30N 38°51' W 070°08'8710.8
2014-Apr-22 07:26N 37°31' W 069°26'1210.0
2014-Apr-22 06:17N 37°21' W 069°20'  
2014-Apr-17 22:24N 18°19' W 063°18'1012.1
2014-Apr-17 21:33N 18°10' W 063°13'7 6.6
2014-Apr-17 20:33N 18°04' W 063°10'5 4.3
2014-Apr-17 19:27N 18°02' W 063°05'0 0.0
2014-Apr-17 18:09N 18°02' W 063°05'0 0.0
2014-Apr-17 17:27N 18°02' W 063°05'0 0.0
2014-Apr-17 16:27N 18°02' W 063°05'0 0.0
2014-Apr-17 15:27N 18°02' W 063°05'0 0.0
2014-Apr-17 13:33N 18°02' W 063°05'0 0.0
2014-Apr-17 12:15N 18°02' W 063°05'0 0.0
2014-Apr-17 11:33N 18°02' W 063°05'0 0.0
2014-Apr-17 10:21N 18°02' W 063°05'0 0.0
2014-Apr-17 09:33N 18°02' W 063°05'0 0.0
2014-Apr-17 08:30N 18°02' W 063°05'0 0.0
2014-Apr-17 07:18N 18°02' W 063°05'0 0.0
2014-Apr-17 06:30N 18°02' W 063°05'0 0.0
2014-Apr-17 05:27N 18°02' W 063°05'0 0.0
2014-Apr-17 04:29N 18°02' W 063°05'0 0.0
2014-Apr-17 03:17N 18°02' W 063°05'0 0.0
2014-Apr-17 02:08N 18°02' W 063°05'0 0.0
2014-Apr-17 01:24N 18°02' W 063°05'0 0.0
2014-Apr-17 00:26N 18°02' W 063°05'0 0.0
2014-Apr-16 23:32N 18°02' W 063°05'0 0.0
2014-Apr-16 22:33N 18°02' W 063°05'0 0.0
2014-Apr-16 21:23N 18°02' W 063°05'0 0.0
2014-Apr-16 20:23N 18°02' W 063°05'0 0.0
2014-Apr-16 19:33N 18°02' W 063°05'0 0.0
2014-Apr-16 18:29N 18°02' W 063°05'0 0.0
2014-Apr-16 17:32N 18°02' W 063°05'0 0.0
2014-Apr-16 16:29N 18°02' W 063°05'0 0.0
2014-Apr-16 15:30N 18°02' W 063°05'0 0.0
2014-Apr-16 14:29N 18°02' W 063°05'0 0.0
2014-Apr-16 13:20N 18°02' W 063°05'0 0.0
2014-Apr-16 12:26N 18°02' W 063°05'0 0.0
2014-Apr-16 10:26N 18°02' W 063°05'0 0.0
2014-Apr-16 09:23N 18°02' W 063°05'0 0.0
2014-Apr-16 08:27N 18°02' W 063°05'0 0.0
2014-Apr-16 07:32N 18°02' W 063°05'0 0.0
2014-Apr-16 06:05N 18°02' W 063°05'0 0.0
2014-Apr-16 05:32N 18°02' W 063°05'0 0.0
2014-Apr-16 04:33N 18°02' W 063°05'0 0.0
2014-Apr-16 03:32N 18°02' W 063°05'0 0.0
2014-Apr-16 02:32N 18°02' W 063°05'0 0.0
2014-Apr-16 01:29N 18°02' W 063°05'0 0.0
2014-Apr-16 00:32N 18°02' W 063°05'0 0.0
2014-Apr-15 23:29N 18°02' W 063°05'0 0.0
2014-Apr-15 21:20N 18°02' W 063°05'0 0.0
2014-Apr-15 20:29N 18°02' W 063°05'0 0.0
2014-Apr-15 19:26N 18°02' W 063°05'0 0.0
2014-Apr-15 18:05N 18°02' W 063°05'0 0.0
2014-Apr-15 17:27N 18°02' W 063°05'0 0.0
2014-Apr-15 16:23N 18°02' W 063°05'0 0.0
2014-Apr-15 15:23N 18°02' W 063°05'0 0.0
2014-Apr-15 12:33N 18°02' W 063°05'0 0.0
2014-Apr-15 03:29N 18°02' W 063°05'0 0.0
2014-Apr-14 20:32N 18°02' W 063°05'0 0.0
2014-Apr-14 16:29N 18°02' W 063°05'0 0.0
2014-Apr-14 05:32N 18°02' W 063°05'0 0.0
2014-Apr-13 22:29N 18°02' W 063°05'0 0.0
2014-Apr-13 21:23N 18°02' W 063°05'1 0.4
2014-Apr-13 19:33N 18°02' W 063°06'0 0.0
2014-Apr-13 17:24N 18°02' W 063°06'0 0.0
2014-Apr-13 15:33N 18°02' W 063°06'0 0.0
2014-Apr-13 13:33N 18°02' W 063°06'0 0.0
2014-Apr-13 12:30N 18°02' W 063°06'0 0.0
2014-Apr-13 11:30N 18°02' W 063°06'0 0.0
2014-Apr-13 09:18N 18°02' W 063°06'0 0.0
2014-Apr-13 08:30N 18°02' W 063°06'0 0.0
2014-Apr-13 07:30N 18°02' W 063°06'  

Dump ship's entire track history

sailing weather and tide predictions

Asolare — ZCDI3 — position and weather